sensor_id;sensor_type;location;lat;lon;timestamp;P1;durP1;ratioP1;P2;durP2;ratioP2
50559;SDS011;36510;52.610;13.468;2022-11-25T00:01:15;55.72;;;29.48;;
50559;SDS011;36510;52.610;13.468;2022-11-25T00:11:07;53.75;;;30.27;;
50559;SDS011;36510;52.610;13.468;2022-11-25T00:16:02;50.90;;;28.55;;
50559;SDS011;36510;52.610;13.468;2022-11-25T00:20:54;54.58;;;29.38;;
50559;SDS011;36510;52.610;13.468;2022-11-25T00:25:44;51.20;;;28.13;;
50559;SDS011;36510;52.610;13.468;2022-11-25T00:30:35;55.85;;;29.17;;
50559;SDS011;36510;52.610;13.468;2022-11-25T00:35:25;57.28;;;31.08;;
50559;SDS011;36510;52.610;13.468;2022-11-25T00:40:16;52.20;;;29.58;;
50559;SDS011;36510;52.610;13.468;2022-11-25T00:45:06;53.63;;;30.05;;
50559;SDS011;36510;52.610;13.468;2022-11-25T00:49:57;54.83;;;29.60;;
50559;SDS011;36510;52.610;13.468;2022-11-25T00:54:48;58.83;;;30.77;;
50559;SDS011;36510;52.610;13.468;2022-11-25T00:59:40;56.53;;;30.60;;
50559;SDS011;36510;52.610;13.468;2022-11-25T01:04:31;54.75;;;29.15;;
50559;SDS011;36510;52.610;13.468;2022-11-25T01:09:21;60.10;;;30.65;;
50559;SDS011;36510;52.610;13.468;2022-11-25T01:14:12;52.17;;;29.00;;
50559;SDS011;36510;52.610;13.468;2022-11-25T01:19:03;59.65;;;30.30;;
50559;SDS011;36510;52.610;13.468;2022-11-25T01:23:54;56.25;;;29.50;;
50559;SDS011;36510;52.610;13.468;2022-11-25T01:28:44;58.28;;;31.10;;
50559;SDS011;36510;52.610;13.468;2022-11-25T01:33:35;58.08;;;30.83;;
50559;SDS011;36510;52.610;13.468;2022-11-25T01:38:27;64.40;;;33.85;;
50559;SDS011;36510;52.610;13.468;2022-11-25T01:43:17;69.75;;;34.40;;
50559;SDS011;36510;52.610;13.468;2022-11-25T01:48:15;63.08;;;33.70;;
50559;SDS011;36510;52.610;13.468;2022-11-25T01:53:14;60.88;;;32.13;;
50559;SDS011;36510;52.610;13.468;2022-11-25T01:58:09;68.40;;;33.08;;
50559;SDS011;36510;52.610;13.468;2022-11-25T02:03:06;65.93;;;32.42;;
50559;SDS011;36510;52.610;13.468;2022-11-25T02:07:58;65.63;;;32.47;;
50559;SDS011;36510;52.610;13.468;2022-11-25T02:12:49;71.00;;;32.70;;
50559;SDS011;36510;52.610;13.468;2022-11-25T02:17:43;74.00;;;33.50;;
50559;SDS011;36510;52.610;13.468;2022-11-25T02:22:44;77.03;;;36.50;;
50559;SDS011;36510;52.610;13.468;2022-11-25T02:28:00;73.70;;;35.25;;
50559;SDS011;36510;52.610;13.468;2022-11-25T02:32:53;65.57;;;33.60;;
50559;SDS011;36510;52.610;13.468;2022-11-25T02:37:44;70.60;;;34.03;;
50559;SDS011;36510;52.610;13.468;2022-11-25T02:42:34;69.15;;;34.10;;
50559;SDS011;36510;52.610;13.468;2022-11-25T02:47:25;75.32;;;35.40;;
50559;SDS011;36510;52.610;13.468;2022-11-25T02:52:15;70.47;;;34.55;;
50559;SDS011;36510;52.610;13.468;2022-11-25T02:57:06;65.72;;;33.28;;
50559;SDS011;36510;52.610;13.468;2022-11-25T03:01:56;63.90;;;32.42;;
50559;SDS011;36510;52.610;13.468;2022-11-25T03:06:47;68.50;;;33.53;;
50559;SDS011;36510;52.610;13.468;2022-11-25T03:11:37;68.53;;;33.38;;
50559;SDS011;36510;52.610;13.468;2022-11-25T03:16:46;67.32;;;31.67;;
50559;SDS011;36510;52.610;13.468;2022-11-25T03:21:37;61.42;;;33.63;;
50559;SDS011;36510;52.610;13.468;2022-11-25T03:26:27;76.35;;;34.85;;
50559;SDS011;36510;52.610;13.468;2022-11-25T03:31:18;74.32;;;34.78;;
50559;SDS011;36510;52.610;13.468;2022-11-25T03:36:08;74.13;;;34.22;;
50559;SDS011;36510;52.610;13.468;2022-11-25T03:40:59;70.50;;;33.47;;
50559;SDS011;36510;52.610;13.468;2022-11-25T03:45:49;68.03;;;32.78;;
50559;SDS011;36510;52.610;13.468;2022-11-25T03:50:40;72.95;;;33.78;;
50559;SDS011;36510;52.610;13.468;2022-11-25T03:55:31;69.68;;;34.00;;
50559;SDS011;36510;52.610;13.468;2022-11-25T04:00:22;71.80;;;33.08;;
50559;SDS011;36510;52.610;13.468;2022-11-25T04:05:12;67.22;;;33.55;;
50559;SDS011;36510;52.610;13.468;2022-11-25T04:10:03;64.43;;;33.50;;
50559;SDS011;36510;52.610;13.468;2022-11-25T04:14:54;68.30;;;34.60;;
50559;SDS011;36510;52.610;13.468;2022-11-25T04:19:44;69.80;;;33.58;;
50559;SDS011;36510;52.610;13.468;2022-11-25T04:24:35;67.65;;;34.08;;
50559;SDS011;36510;52.610;13.468;2022-11-25T04:29:25;68.15;;;33.00;;
50559;SDS011;36510;52.610;13.468;2022-11-25T04:34:16;62.45;;;32.40;;
50559;SDS011;36510;52.610;13.468;2022-11-25T04:39:06;73.32;;;34.13;;
50559;SDS011;36510;52.610;13.468;2022-11-25T04:43:58;68.68;;;34.08;;
50559;SDS011;36510;52.610;13.468;2022-11-25T04:48:49;73.70;;;33.10;;
50559;SDS011;36510;52.610;13.468;2022-11-25T04:53:39;80.05;;;34.65;;
50559;SDS011;36510;52.610;13.468;2022-11-25T04:58:30;83.18;;;35.55;;
50559;SDS011;36510;52.610;13.468;2022-11-25T05:03:39;89.80;;;37.85;;
50559;SDS011;36510;52.610;13.468;2022-11-25T05:08:30;97.60;;;39.53;;
50559;SDS011;36510;52.610;13.468;2022-11-25T05:13:20;97.10;;;38.10;;
50559;SDS011;36510;52.610;13.468;2022-11-25T05:18:11;79.60;;;36.47;;
50559;SDS011;36510;52.610;13.468;2022-11-25T05:23:01;82.85;;;36.83;;
50559;SDS011;36510;52.610;13.468;2022-11-25T05:27:52;88.13;;;37.03;;
50559;SDS011;36510;52.610;13.468;2022-11-25T05:32:42;84.20;;;36.70;;
50559;SDS011;36510;52.610;13.468;2022-11-25T05:37:33;83.15;;;38.80;;
50559;SDS011;36510;52.610;13.468;2022-11-25T05:42:24;81.80;;;37.17;;
50559;SDS011;36510;52.610;13.468;2022-11-25T05:47:14;76.22;;;35.20;;
50559;SDS011;36510;52.610;13.468;2022-11-25T05:52:05;77.32;;;34.58;;
50559;SDS011;36510;52.610;13.468;2022-11-25T05:56:55;72.38;;;34.85;;
50559;SDS011;36510;52.610;13.468;2022-11-25T06:01:46;78.95;;;35.20;;
50559;SDS011;36510;52.610;13.468;2022-11-25T06:06:36;73.57;;;36.45;;
50559;SDS011;36510;52.610;13.468;2022-11-25T06:11:27;74.00;;;35.58;;
50559;SDS011;36510;52.610;13.468;2022-11-25T06:16:19;78.00;;;36.38;;
50559;SDS011;36510;52.610;13.468;2022-11-25T06:21:11;80.40;;;36.88;;
50559;SDS011;36510;52.610;13.468;2022-11-25T06:26:09;75.22;;;37.78;;
50559;SDS011;36510;52.610;13.468;2022-11-25T06:31:18;82.07;;;37.28;;
50559;SDS011;36510;52.610;13.468;2022-11-25T06:36:10;78.97;;;36.40;;
50559;SDS011;36510;52.610;13.468;2022-11-25T06:41:06;72.47;;;34.83;;
50559;SDS011;36510;52.610;13.468;2022-11-25T06:46:00;76.82;;;33.58;;
50559;SDS011;36510;52.610;13.468;2022-11-25T06:50:56;75.65;;;33.97;;
50559;SDS011;36510;52.610;13.468;2022-11-25T06:56:06;74.50;;;34.88;;
50559;SDS011;36510;52.610;13.468;2022-11-25T07:01:17;76.90;;;34.50;;
50559;SDS011;36510;52.610;13.468;2022-11-25T07:06:13;72.22;;;33.10;;
50559;SDS011;36510;52.610;13.468;2022-11-25T07:11:06;77.72;;;33.42;;
50559;SDS011;36510;52.610;13.468;2022-11-25T07:16:03;79.75;;;29.17;;
50559;SDS011;36510;52.610;13.468;2022-11-25T07:20:55;73.93;;;31.20;;
50559;SDS011;36510;52.610;13.468;2022-11-25T07:25:50;85.43;;;32.85;;
50559;SDS011;36510;52.610;13.468;2022-11-25T07:30:40;95.00;;;33.38;;
50559;SDS011;36510;52.610;13.468;2022-11-25T07:35:30;127.03;;;32.03;;
50559;SDS011;36510;52.610;13.468;2022-11-25T07:40:22;93.32;;;33.03;;
50559;SDS011;36510;52.610;13.468;2022-11-25T07:45:13;103.90;;;28.83;;
50559;SDS011;36510;52.610;13.468;2022-11-25T07:50:04;109.88;;;30.73;;
50559;SDS011;36510;52.610;13.468;2022-11-25T07:54:54;156.07;;;34.90;;
50559;SDS011;36510;52.610;13.468;2022-11-25T07:59:45;102.70;;;31.98;;
50559;SDS011;36510;52.610;13.468;2022-11-25T08:04:35;122.15;;;36.50;;
50559;SDS011;36510;52.610;13.468;2022-11-25T08:09:26;111.40;;;35.35;;
50559;SDS011;36510;52.610;13.468;2022-11-25T08:14:17;114.57;;;35.00;;
50559;SDS011;36510;52.610;13.468;2022-11-25T08:19:09;100.13;;;35.17;;
50559;SDS011;36510;52.610;13.468;2022-11-25T08:24:02;93.47;;;35.97;;
50559;SDS011;36510;52.610;13.468;2022-11-25T08:28:55;104.00;;;37.38;;
50559;SDS011;36510;52.610;13.468;2022-11-25T08:33:46;124.57;;;37.50;;
50559;SDS011;36510;52.610;13.468;2022-11-25T08:38:38;106.60;;;32.08;;
50559;SDS011;36510;52.610;13.468;2022-11-25T08:43:29;93.47;;;34.58;;
50559;SDS011;36510;52.610;13.468;2022-11-25T08:48:19;85.75;;;34.75;;
50559;SDS011;36510;52.610;13.468;2022-11-25T08:53:10;100.82;;;35.65;;
50559;SDS011;36510;52.610;13.468;2022-11-25T08:58:01;101.68;;;35.67;;
50559;SDS011;36510;52.610;13.468;2022-11-25T09:02:51;82.60;;;34.00;;
50559;SDS011;36510;52.610;13.468;2022-11-25T09:07:42;105.90;;;35.40;;
50559;SDS011;36510;52.610;13.468;2022-11-25T09:12:32;96.57;;;36.97;;
50559;SDS011;36510;52.610;13.468;2022-11-25T09:17:23;98.90;;;38.10;;
50559;SDS011;36510;52.610;13.468;2022-11-25T09:22:13;87.40;;;35.92;;
50559;SDS011;36510;52.610;13.468;2022-11-25T09:27:04;73.97;;;32.50;;
50559;SDS011;36510;52.610;13.468;2022-11-25T09:31:54;76.95;;;31.33;;
50559;SDS011;36510;52.610;13.468;2022-11-25T09:36:45;70.07;;;32.55;;
50559;SDS011;36510;52.610;13.468;2022-11-25T09:41:49;78.28;;;34.75;;
50559;SDS011;36510;52.610;13.468;2022-11-25T09:47:33;68.38;;;28.67;;
50559;SDS011;36510;52.610;13.468;2022-11-25T09:52:46;52.40;;;25.77;;
50559;SDS011;36510;52.610;13.468;2022-11-25T09:58:19;46.38;;;24.10;;
50559;SDS011;36510;52.610;13.468;2022-11-25T10:08:37;72.22;;;33.35;;
50559;SDS011;36510;52.610;13.468;2022-11-25T10:19:18;63.38;;;31.85;;
50559;SDS011;36510;52.610;13.468;2022-11-25T10:24:20;73.03;;;33.85;;
50559;SDS011;36510;52.610;13.468;2022-11-25T10:29:24;64.13;;;33.35;;
50559;SDS011;36510;52.610;13.468;2022-11-25T10:34:29;63.58;;;31.52;;
50559;SDS011;36510;52.610;13.468;2022-11-25T10:39:26;61.70;;;32.38;;
50559;SDS011;36510;52.610;13.468;2022-11-25T10:54:24;54.47;;;28.92;;
50559;SDS011;36510;52.610;13.468;2022-11-25T11:04:14;62.53;;;32.50;;
50559;SDS011;36510;52.610;13.468;2022-11-25T11:14:20;51.03;;;27.23;;
50559;SDS011;36510;52.610;13.468;2022-11-25T11:19:21;58.60;;;31.10;;
50559;SDS011;36510;52.610;13.468;2022-11-25T11:29:18;54.28;;;30.02;;
50559;SDS011;36510;52.610;13.468;2022-11-25T11:39:58;58.17;;;31.13;;
50559;SDS011;36510;52.610;13.468;2022-11-25T11:45:00;42.80;;;26.27;;
50559;SDS011;36510;52.610;13.468;2022-11-25T11:54:59;54.00;;;31.13;;
50559;SDS011;36510;52.610;13.468;2022-11-25T12:00:14;57.13;;;31.20;;
50559;SDS011;36510;52.610;13.468;2022-11-25T12:10:02;58.72;;;33.85;;
50559;SDS011;36510;52.610;13.468;2022-11-25T12:15:05;49.20;;;30.48;;
50559;SDS011;36510;52.610;13.468;2022-11-25T12:20:08;40.83;;;25.25;;
50559;SDS011;36510;52.610;13.468;2022-11-25T12:30:12;45.03;;;29.08;;
50559;SDS011;36510;52.610;13.468;2022-11-25T12:40:25;51.15;;;31.83;;
50559;SDS011;36510;52.610;13.468;2022-11-25T12:45:25;52.75;;;31.92;;
50559;SDS011;36510;52.610;13.468;2022-11-25T12:50:16;52.15;;;32.70;;
50559;SDS011;36510;52.610;13.468;2022-11-25T12:55:18;50.92;;;32.05;;
50559;SDS011;36510;52.610;13.468;2022-11-25T13:00:20;50.95;;;32.05;;
50559;SDS011;36510;52.610;13.468;2022-11-25T13:05:52;53.13;;;32.60;;
50559;SDS011;36510;52.610;13.468;2022-11-25T13:15:53;57.63;;;33.92;;
50559;SDS011;36510;52.610;13.468;2022-11-25T13:20:48;53.25;;;32.33;;
50559;SDS011;36510;52.610;13.468;2022-11-25T13:25:42;54.10;;;32.47;;
50559;SDS011;36510;52.610;13.468;2022-11-25T13:30:35;52.22;;;31.77;;
50559;SDS011;36510;52.610;13.468;2022-11-25T13:35:31;53.05;;;30.58;;
50559;SDS011;36510;52.610;13.468;2022-11-25T13:45:48;49.38;;;29.10;;
50559;SDS011;36510;52.610;13.468;2022-11-25T13:50:32;50.28;;;27.77;;
50559;SDS011;36510;52.610;13.468;2022-11-25T13:55:24;48.95;;;27.42;;
50559;SDS011;36510;52.610;13.468;2022-11-25T14:15:29;54.22;;;29.92;;
50559;SDS011;36510;52.610;13.468;2022-11-25T14:20:53;53.17;;;28.35;;
50559;SDS011;36510;52.610;13.468;2022-11-25T14:26:08;58.58;;;31.45;;
50559;SDS011;36510;52.610;13.468;2022-11-25T14:31:06;57.08;;;31.73;;
50559;SDS011;36510;52.610;13.468;2022-11-25T14:36:10;61.92;;;30.67;;
50559;SDS011;36510;52.610;13.468;2022-11-25T14:41:09;85.65;;;50.67;;
50559;SDS011;36510;52.610;13.468;2022-11-25T14:46:12;57.92;;;28.95;;
50559;SDS011;36510;52.610;13.468;2022-11-25T14:51:10;60.40;;;29.67;;
50559;SDS011;36510;52.610;13.468;2022-11-25T14:56:05;70.18;;;31.75;;
50559;SDS011;36510;52.610;13.468;2022-11-25T15:05:52;73.53;;;31.40;;
50559;SDS011;36510;52.610;13.468;2022-11-25T15:10:50;68.78;;;33.10;;
50559;SDS011;36510;52.610;13.468;2022-11-25T15:15:47;69.55;;;31.42;;
50559;SDS011;36510;52.610;13.468;2022-11-25T15:20:43;67.68;;;31.13;;
50559;SDS011;36510;52.610;13.468;2022-11-25T15:25:47;73.73;;;31.63;;
50559;SDS011;36510;52.610;13.468;2022-11-25T15:30:39;75.47;;;33.05;;
50559;SDS011;36510;52.610;13.468;2022-11-25T15:35:29;79.68;;;34.08;;
50559;SDS011;36510;52.610;13.468;2022-11-25T15:45:26;75.03;;;33.50;;
50559;SDS011;36510;52.610;13.468;2022-11-25T15:55:17;64.80;;;29.90;;
50559;SDS011;36510;52.610;13.468;2022-11-25T16:00:18;78.80;;;33.20;;
50559;SDS011;36510;52.610;13.468;2022-11-25T16:05:14;79.75;;;32.67;;
50559;SDS011;36510;52.610;13.468;2022-11-25T16:15:40;75.32;;;32.33;;
50559;SDS011;36510;52.610;13.468;2022-11-25T16:20:34;71.82;;;32.55;;
50559;SDS011;36510;52.610;13.468;2022-11-25T16:25:24;67.45;;;32.75;;
50559;SDS011;36510;52.610;13.468;2022-11-25T16:30:16;69.53;;;30.60;;
50559;SDS011;36510;52.610;13.468;2022-11-25T16:35:12;68.55;;;31.77;;
50559;SDS011;36510;52.610;13.468;2022-11-25T16:40:05;67.00;;;31.20;;
50559;SDS011;36510;52.610;13.468;2022-11-25T16:44:57;74.95;;;33.50;;
50559;SDS011;36510;52.610;13.468;2022-11-25T16:49:50;76.30;;;34.60;;
50559;SDS011;36510;52.610;13.468;2022-11-25T16:54:40;81.88;;;38.75;;
50559;SDS011;36510;52.610;13.468;2022-11-25T16:59:32;76.70;;;37.40;;
50559;SDS011;36510;52.610;13.468;2022-11-25T17:04:26;76.05;;;35.35;;
50559;SDS011;36510;52.610;13.468;2022-11-25T17:09:17;74.97;;;34.67;;
50559;SDS011;36510;52.610;13.468;2022-11-25T17:14:12;69.88;;;35.45;;
50559;SDS011;36510;52.610;13.468;2022-11-25T17:19:12;82.38;;;34.97;;
50559;SDS011;36510;52.610;13.468;2022-11-25T17:24:07;78.95;;;34.53;;
50559;SDS011;36510;52.610;13.468;2022-11-25T17:29:12;85.90;;;36.22;;
50559;SDS011;36510;52.610;13.468;2022-11-25T17:34:05;81.43;;;38.13;;
50559;SDS011;36510;52.610;13.468;2022-11-25T17:38:55;89.50;;;40.17;;
50559;SDS011;36510;52.610;13.468;2022-11-25T17:43:46;99.43;;;42.22;;
50559;SDS011;36510;52.610;13.468;2022-11-25T17:48:39;80.10;;;37.78;;
50559;SDS011;36510;52.610;13.468;2022-11-25T17:53:33;91.38;;;42.40;;
50559;SDS011;36510;52.610;13.468;2022-11-25T17:58:28;82.93;;;41.03;;
50559;SDS011;36510;52.610;13.468;2022-11-25T18:03:19;82.30;;;38.13;;
50559;SDS011;36510;52.610;13.468;2022-11-25T18:08:09;74.68;;;37.17;;
50559;SDS011;36510;52.610;13.468;2022-11-25T18:13:00;78.82;;;38.08;;
50559;SDS011;36510;52.610;13.468;2022-11-25T18:17:53;71.03;;;35.20;;
50559;SDS011;36510;52.610;13.468;2022-11-25T18:22:49;72.72;;;35.75;;
50559;SDS011;36510;52.610;13.468;2022-11-25T18:27:41;68.53;;;36.10;;
50559;SDS011;36510;52.610;13.468;2022-11-25T18:32:32;68.68;;;35.67;;
50559;SDS011;36510;52.610;13.468;2022-11-25T18:37:23;66.22;;;32.95;;
50559;SDS011;36510;52.610;13.468;2022-11-25T18:42:19;60.80;;;33.08;;
50559;SDS011;36510;52.610;13.468;2022-11-25T18:47:14;62.35;;;33.53;;
50559;SDS011;36510;52.610;13.468;2022-11-25T18:52:04;49.30;;;30.13;;
50559;SDS011;36510;52.610;13.468;2022-11-25T18:56:55;50.38;;;29.27;;
50559;SDS011;36510;52.610;13.468;2022-11-25T19:01:45;46.45;;;28.13;;
50559;SDS011;36510;52.610;13.468;2022-11-25T19:06:36;49.72;;;29.52;;
50559;SDS011;36510;52.610;13.468;2022-11-25T19:16:19;45.08;;;27.77;;
50559;SDS011;36510;52.610;13.468;2022-11-25T19:21:13;48.63;;;28.63;;
50559;SDS011;36510;52.610;13.468;2022-11-25T19:26:05;46.65;;;27.40;;
50559;SDS011;36510;52.610;13.468;2022-11-25T19:31:10;47.67;;;28.90;;
50559;SDS011;36510;52.610;13.468;2022-11-25T19:36:02;46.47;;;28.45;;
50559;SDS011;36510;52.610;13.468;2022-11-25T19:40:54;48.35;;;29.95;;
50559;SDS011;36510;52.610;13.468;2022-11-25T19:45:45;46.65;;;28.38;;
50559;SDS011;36510;52.610;13.468;2022-11-25T19:50:36;46.08;;;28.92;;
50559;SDS011;36510;52.610;13.468;2022-11-25T19:55:28;48.42;;;28.80;;
50559;SDS011;36510;52.610;13.468;2022-11-25T20:00:20;48.55;;;29.35;;
50559;SDS011;36510;52.610;13.468;2022-11-25T20:05:16;50.83;;;30.25;;
50559;SDS011;36510;52.610;13.468;2022-11-25T20:10:17;52.35;;;31.77;;
50559;SDS011;36510;52.610;13.468;2022-11-25T20:15:10;52.97;;;33.15;;
50559;SDS011;36510;52.610;13.468;2022-11-25T20:20:05;54.42;;;33.47;;
50559;SDS011;36510;52.610;13.468;2022-11-25T20:25:21;55.85;;;33.08;;
50559;SDS011;36510;52.610;13.468;2022-11-25T20:30:19;53.83;;;31.15;;
50559;SDS011;36510;52.610;13.468;2022-11-25T20:35:11;51.88;;;30.05;;
50559;SDS011;36510;52.610;13.468;2022-11-25T20:40:03;51.42;;;30.35;;
50559;SDS011;36510;52.610;13.468;2022-11-25T20:44:54;55.10;;;32.00;;
50559;SDS011;36510;52.610;13.468;2022-11-25T20:49:46;53.75;;;30.40;;
50559;SDS011;36510;52.610;13.468;2022-11-25T20:54:37;51.17;;;30.73;;
50559;SDS011;36510;52.610;13.468;2022-11-25T20:59:28;50.92;;;30.55;;
50559;SDS011;36510;52.610;13.468;2022-11-25T21:04:20;50.50;;;30.77;;
50559;SDS011;36510;52.610;13.468;2022-11-25T21:09:16;51.63;;;30.48;;
50559;SDS011;36510;52.610;13.468;2022-11-25T21:14:11;51.50;;;30.23;;
50559;SDS011;36510;52.610;13.468;2022-11-25T21:19:04;51.67;;;28.80;;
50559;SDS011;36510;52.610;13.468;2022-11-25T21:23:54;51.28;;;29.25;;
50559;SDS011;36510;52.610;13.468;2022-11-25T21:28:46;45.35;;;27.45;;
50559;SDS011;36510;52.610;13.468;2022-11-25T21:33:37;51.50;;;28.15;;
50559;SDS011;36510;52.610;13.468;2022-11-25T21:38:28;49.55;;;26.92;;
50559;SDS011;36510;52.610;13.468;2022-11-25T21:43:19;47.47;;;29.00;;
50559;SDS011;36510;52.610;13.468;2022-11-25T21:48:20;46.92;;;28.00;;
50559;SDS011;36510;52.610;13.468;2022-11-25T21:53:13;49.47;;;27.70;;
50559;SDS011;36510;52.610;13.468;2022-11-25T21:58:03;48.10;;;28.02;;
50559;SDS011;36510;52.610;13.468;2022-11-25T22:02:57;44.78;;;28.02;;
50559;SDS011;36510;52.610;13.468;2022-11-25T22:07:47;48.97;;;28.52;;
50559;SDS011;36510;52.610;13.468;2022-11-25T22:12:38;46.92;;;29.60;;
50559;SDS011;36510;52.610;13.468;2022-11-25T22:17:30;51.85;;;29.10;;
50559;SDS011;36510;52.610;13.468;2022-11-25T22:22:20;49.78;;;29.67;;
50559;SDS011;36510;52.610;13.468;2022-11-25T22:27:19;51.72;;;30.17;;
50559;SDS011;36510;52.610;13.468;2022-11-25T22:32:12;47.45;;;29.20;;
50559;SDS011;36510;52.610;13.468;2022-11-25T22:37:08;49.65;;;28.92;;
50559;SDS011;36510;52.610;13.468;2022-11-25T22:42:11;45.85;;;28.33;;
50559;SDS011;36510;52.610;13.468;2022-11-25T22:52:16;43.95;;;26.40;;
50559;SDS011;36510;52.610;13.468;2022-11-25T22:57:14;48.42;;;28.38;;
50559;SDS011;36510;52.610;13.468;2022-11-25T23:02:05;51.90;;;30.17;;
50559;SDS011;36510;52.610;13.468;2022-11-25T23:06:56;50.22;;;31.88;;
50559;SDS011;36510;52.610;13.468;2022-11-25T23:11:47;50.65;;;32.15;;
50559;SDS011;36510;52.610;13.468;2022-11-25T23:16:38;52.60;;;31.83;;
50559;SDS011;36510;52.610;13.468;2022-11-25T23:21:30;51.78;;;30.95;;
50559;SDS011;36510;52.610;13.468;2022-11-25T23:26:21;52.47;;;31.13;;
50559;SDS011;36510;52.610;13.468;2022-11-25T23:31:12;50.63;;;30.63;;
50559;SDS011;36510;52.610;13.468;2022-11-25T23:36:26;49.38;;;28.85;;
50559;SDS011;36510;52.610;13.468;2022-11-25T23:41:19;46.78;;;28.05;;
50559;SDS011;36510;52.610;13.468;2022-11-25T23:46:12;71.60;;;41.70;;
50559;SDS011;36510;52.610;13.468;2022-11-25T23:51:03;50.70;;;33.83;;
50559;SDS011;36510;52.610;13.468;2022-11-25T23:55:55;42.92;;;27.88;;
